Disclaimer

Please do not use the information listed here in-flight or in-navigation, as they are not provided to us by the airports but are provided by volunteers, so they might be outdated.

Search


Regions


Airport information page

Radio informations:
Tower (TWR) - 120.7 MHz
RDO - 5790 MHz

Airport informations:
Latitude: 31° 16' 46.00" N
Longitude: 032° 14' 24.00" E
Elevation: 8 feet - 2 meters
Operating hours: From sunrise to sunset (SR-SS)
Operating agency: Civil government, landing fees and diplomatic clearance may be required
Timezone: UTC+2(+3DT) - Dates notified by NOTAM
Fuel: Jet A1, without icing nhibitor.

Runway information:
10/28 - 7707 x 148 feet< - >2349 x 45 meters

Recent METARs:
HEPS 160300Z 18004KT CAVOK 15/14 Q1015 NOSIG
HEPS 160300Z 18004KT CAVOK 15/14 Q1015 NOSIG
HEPS 160400Z 19003KT CAVOK 15/14 Q1015 NOSIG

Airport on the map: